Terminal Aerodrome Forecast
Issued by NWS

Home | Current Version | Previous Version | Text Only | Print | Product List | Glossary On
Versions: 1 2 3 4 5 6 7 8 9 10 11 12 13
411
FTUS43 KOAX 262341
TAFCDR
TAF
KCDR 262341Z 2700/2724 03007KT P6SM -RA VCTS BKN040CB OVC080
     FM270600 01005KT P6SM -SHRA OVC015
     FM271700 35009KT P6SM BKN050=

USA.gov is the U.S. government's official web portal to all federal, state and local government web resources and services.